Decoded Metar for UUDL ( in ) (IATA:) | Meteo·Mobile Aviation Weather
aviador You're here:

UUDL Decoded Metar

in
Report Time2018-08-16 00:30:00
UTC Time2018-08-16 00:49:12
Flight Rules vfr VFR
Wind270° at 6 kt
W.Decomp.*RWY 23: 4.6 kt HW 3.9 kt RCW
W.Rank270° ranks 13
Current wind is below 270° avg. (8.0)
Visibility9999 m
Phenomena:N/A
Clouds:N/A
Expected CloudBase > 400 ft AGL from Temp-Dew spread
CeilingNone
Temp17°C
Dew Point16°C (94% RH)
AAT16.8°C
QNH1009 hPa
Raw Report
METAR UUDL 160030Z 27003MPS CAVOK 17/16 Q1009 R23/290055 NOSIG RMK
QFE748=

Extra information for UUDL:More info

Social comments